Time;durP1;ratioP1;P1;durP2;ratioP2;P2;SDS_P1;SDS_P2;PMS_P1;PMS_P2;Temp;Humidity;BMP_temperature;BMP_pressure;BME280_temperature;BME280_humidity;BME280_pressure;Samples;Min_cycle;Max_cycle;Signal;HPM_P1;HPM_P2
2023/11/08 00:01:30;;;;;;;6.63;1.63;;;;;;;;;;5058494;28;20440;-85
2023/11/08 00:03:56;;;;;;;6.80;1.60;;;;;;;;;;5055069;28;20021;-85
2023/11/08 00:06:21;;;;;;;5.05;1.85;;;;;;;;;;5069592;28;20029;-85
2023/11/08 00:08:50;;;;;;;4.85;1.52;;;;;;;;;;5056801;28;20020;-85
2023/11/08 00:11:16;;;;;;;6.13;1.67;;;;;;;;;;5066860;28;20044;-86
2023/11/08 00:13:41;;;;;;;5.95;1.42;;;;;;;;;;5065055;28;20013;-85
2023/11/08 00:16:07;;;;;;;6.97;2.00;;;;;;;;;;5054706;28;20452;-85
2023/11/08 00:18:33;;;;;;;6.13;1.75;;;;;;;;;;5056401;28;20056;-86
2023/11/08 00:21:02;;;;;;;7.93;1.45;;;;;;;;;;5055061;28;20455;-85
2023/11/08 00:23:27;;;;;;;6.82;1.25;;;;;;;;;;5054618;28;20377;-85
2023/11/08 00:25:53;;;;;;;6.22;1.67;;;;;;;;;;5055274;28;20066;-85
2023/11/08 00:28:21;;;;;;;4.13;1.30;;;;;;;;;;5055627;28;20028;-86
2023/11/08 00:30:46;;;;;;;3.63;1.33;;;;;;;;;;5055738;28;20035;-85
2023/11/08 00:33:11;;;;;;;4.63;1.33;;;;;;;;;;5064881;28;20104;-85
2023/11/08 00:35:38;;;;;;;5.88;1.77;;;;;;;;;;5058146;28;20111;-85
2023/11/08 00:38:04;;;;;;;8.63;1.67;;;;;;;;;;5059002;28;20444;-85
2023/11/08 00:40:29;;;;;;;3.95;1.48;;;;;;;;;;5065209;28;20029;-86
2023/11/08 00:42:54;;;;;;;4.03;1.33;;;;;;;;;;5055639;28;20064;-86
2023/11/08 00:45:19;;;;;;;7.10;1.75;;;;;;;;;;5055481;28;20005;-85
2023/11/08 00:47:45;;;;;;;7.45;1.40;;;;;;;;;;5054257;28;20025;-85
2023/11/08 00:50:10;;;;;;;4.55;1.30;;;;;;;;;;5053970;28;20017;-85
2023/11/08 00:52:36;;;;;;;5.28;1.55;;;;;;;;;;5054412;28;20461;-85
2023/11/08 00:55:02;;;;;;;4.20;1.23;;;;;;;;;;5055271;28;20043;-86
2023/11/08 00:57:30;;;;;;;4.93;1.00;;;;;;;;;;5064215;28;20058;-82
2023/11/08 00:59:55;;;;;;;3.17;1.20;;;;;;;;;;5058791;28;20020;-82
2023/11/08 01:02:21;;;;;;;3.17;1.10;;;;;;;;;;5058517;28;20032;-81
2023/11/08 01:04:46;;;;;;;5.53;1.23;;;;;;;;;;5066708;28;20099;-81
2023/11/08 01:07:11;;;;;;;4.43;1.05;;;;;;;;;;5072911;28;20009;-82
2023/11/08 01:09:37;;;;;;;2.38;1.08;;;;;;;;;;5071844;28;20027;-82
2023/11/08 01:12:03;;;;;;;3.25;0.90;;;;;;;;;;5072822;28;20475;-82
2023/11/08 01:14:28;;;;;;;4.20;0.88;;;;;;;;;;5058635;28;20376;-81
2023/11/08 01:16:54;;;;;;;4.00;1.05;;;;;;;;;;5067612;28;20039;-82
2023/11/08 01:19:19;;;;;;;4.90;0.85;;;;;;;;;;5064680;28;20049;-82
2023/11/08 01:21:46;;;;;;;7.38;1.10;;;;;;;;;;5051457;28;20033;-82
2023/11/08 01:24:15;;;;;;;3.67;1.00;;;;;;;;;;5037347;28;20408;-82
2023/11/08 01:26:40;;;;;;;5.50;1.02;;;;;;;;;;5053603;28;20013;-82
2023/11/08 01:29:06;;;;;;;2.70;0.80;;;;;;;;;;5051629;28;20084;-82
2023/11/08 01:31:31;;;;;;;5.53;0.68;;;;;;;;;;5061510;28;20013;-82
2023/11/08 01:33:58;;;;;;;1.95;0.77;;;;;;;;;;5070851;28;20021;-82
2023/11/08 01:36:24;;;;;;;4.53;0.98;;;;;;;;;;5070934;28;20040;-82
2023/11/08 01:38:49;;;;;;;2.40;0.82;;;;;;;;;;5060909;28;20459;-82
2023/11/08 01:41:14;;;;;;;6.10;1.73;;;;;;;;;;5067099;28;20059;-82
2023/11/08 01:43:40;;;;;;;3.40;0.82;;;;;;;;;;5062933;28;20017;-82
2023/11/08 01:46:07;;;;;;;2.92;0.90;;;;;;;;;;5064942;28;20016;-82
2023/11/08 01:48:33;;;;;;;4.68;0.95;;;;;;;;;;5050296;28;20357;-82
2023/11/08 01:50:59;;;;;;;3.65;1.10;;;;;;;;;;5051831;28;20032;-82
2023/11/08 01:53:27;;;;;;;1.42;0.85;;;;;;;;;;5055182;28;20032;-82
2023/11/08 01:55:53;;;;;;;5.25;0.98;;;;;;;;;;5061066;28;20021;-82
2023/11/08 01:58:18;;;;;;;3.30;0.95;;;;;;;;;;5067472;28;20027;-82
2023/11/08 02:00:47;;;;;;;2.90;1.10;;;;;;;;;;5071922;28;20016;-82
2023/11/08 02:03:13;;;;;;;5.10;1.35;;;;;;;;;;5054515;28;20194;-82
2023/11/08 02:05:38;;;;;;;3.17;0.93;;;;;;;;;;5072086;28;20104;-82
2023/11/08 02:08:06;;;;;;;6.25;1.20;;;;;;;;;;5072127;28;20357;-82
2023/11/08 02:10:31;;;;;;;2.40;0.95;;;;;;;;;;5072061;28;20024;-82
2023/11/08 02:12:58;;;;;;;3.22;1.00;;;;;;;;;;5058995;28;20074;-82
2023/11/08 02:15:25;;;;;;;3.22;1.08;;;;;;;;;;5053914;28;20396;-82
2023/11/08 02:17:50;;;;;;;2.90;1.05;;;;;;;;;;5049908;28;20490;-82
2023/11/08 02:20:17;;;;;;;10.15;1.27;;;;;;;;;;5051712;28;20100;-82
2023/11/08 02:22:43;;;;;;;1.80;0.85;;;;;;;;;;5061912;28;20523;-82
2023/11/08 02:25:11;;;;;;;5.53;1.20;;;;;;;;;;5050066;28;20028;-82
2023/11/08 02:27:36;;;;;;;6.15;1.45;;;;;;;;;;5044494;28;20577;-82
2023/11/08 02:30:03;;;;;;;4.13;1.25;;;;;;;;;;5059708;28;20024;-82
2023/11/08 02:32:28;;;;;;;3.90;1.02;;;;;;;;;;5065886;28;20024;-82
2023/11/08 02:34:53;;;;;;;3.33;1.10;;;;;;;;;;5050126;28;20404;-82
2023/11/08 02:37:19;;;;;;;4.75;1.05;;;;;;;;;;5065202;28;20025;-82
2023/11/08 02:39:44;;;;;;;9.45;1.70;;;;;;;;;;5068442;28;20038;-82
2023/11/08 02:42:11;;;;;;;5.22;1.23;;;;;;;;;;5057536;28;20142;-82
2023/11/08 02:44:38;;;;;;;3.85;1.02;;;;;;;;;;5063888;28;20483;-82
2023/11/08 02:47:03;;;;;;;4.80;1.38;;;;;;;;;;5058497;28;20115;-82
2023/11/08 02:49:30;;;;;;;4.43;0.90;;;;;;;;;;5053064;28;20084;-81
2023/11/08 02:51:56;;;;;;;2.97;1.02;;;;;;;;;;5075836;28;20020;-82
2023/11/08 02:54:21;;;;;;;4.60;1.00;;;;;;;;;;5061630;28;20365;-82
2023/11/08 02:56:46;;;;;;;2.20;0.70;;;;;;;;;;5068199;28;20521;-82
2023/11/08 02:59:11;;;;;;;2.60;0.65;;;;;;;;;;5072651;28;20475;-82
2023/11/08 03:01:38;;;;;;;4.63;0.82;;;;;;;;;;5071971;28;20029;-82
2023/11/08 03:04:03;;;;;;;3.17;0.85;;;;;;;;;;5053861;28;20400;-81
2023/11/08 03:06:28;;;;;;;6.38;1.02;;;;;;;;;;5055603;28;20021;-82
2023/11/08 03:08:53;;;;;;;2.75;0.90;;;;;;;;;;5069072;28;20032;-82
2023/11/08 03:11:19;;;;;;;1.75;0.70;;;;;;;;;;5075232;28;20024;-82
2023/11/08 03:13:45;;;;;;;6.18;0.80;;;;;;;;;;5060787;28;20428;-82
2023/11/08 03:16:10;;;;;;;2.17;0.63;;;;;;;;;;5075186;28;20036;-82
2023/11/08 03:18:38;;;;;;;3.92;0.90;;;;;;;;;;5074783;28;20024;-82
2023/11/08 03:21:03;;;;;;;3.53;0.90;;;;;;;;;;5070490;28;20043;-82
2023/11/08 03:23:29;;;;;;;4.35;0.80;;;;;;;;;;5074795;28;20029;-81
2023/11/08 03:25:54;;;;;;;3.85;0.93;;;;;;;;;;5070655;28;20063;-82
2023/11/08 03:28:19;;;;;;;2.38;0.57;;;;;;;;;;5053413;28;20021;-82
2023/11/08 03:30:45;;;;;;;6.85;0.70;;;;;;;;;;5071900;28;20103;-82
2023/11/08 03:33:10;;;;;;;3.70;1.05;;;;;;;;;;5072276;28;20021;-82
2023/11/08 03:35:35;;;;;;;3.92;0.95;;;;;;;;;;5074616;28;20452;-82
2023/11/08 03:38:03;;;;;;;3.72;0.85;;;;;;;;;;5074625;28;20013;-82
2023/11/08 03:40:29;;;;;;;7.90;1.10;;;;;;;;;;5064973;28;20017;-82
2023/11/08 03:42:54;;;;;;;2.53;0.90;;;;;;;;;;5073310;28;20113;-83
2023/11/08 03:45:19;;;;;;;6.05;1.05;;;;;;;;;;5069985;28;20024;-82
2023/11/08 03:47:44;;;;;;;4.97;1.13;;;;;;;;;;5073005;28;20070;-82
2023/11/08 03:50:10;;;;;;;6.72;1.10;;;;;;;;;;5074790;28;20040;-82
2023/11/08 03:52:35;;;;;;;5.88;1.33;;;;;;;;;;5073481;28;20019;-82
2023/11/08 03:55:01;;;;;;;7.28;1.13;;;;;;;;;;5061099;28;20056;-81
2023/11/08 03:57:28;;;;;;;4.00;0.98;;;;;;;;;;5059775;28;20028;-81
2023/11/08 03:59:56;;;;;;;4.63;1.52;;;;;;;;;;5062106;28;20028;-82
2023/11/08 04:02:21;;;;;;;4.38;1.20;;;;;;;;;;5059721;28;20028;-82
2023/11/08 04:04:47;;;;;;;5.53;1.23;;;;;;;;;;5065853;28;20325;-82
2023/11/08 04:07:12;;;;;;;5.45;1.05;;;;;;;;;;5054630;28;20029;-82
2023/11/08 04:09:38;;;;;;;6.10;1.95;;;;;;;;;;5052027;28;20044;-82
2023/11/08 04:12:04;;;;;;;6.18;1.60;;;;;;;;;;5064890;28;20020;-82
2023/11/08 04:14:29;;;;;;;11.70;1.50;;;;;;;;;;5073530;28;20143;-82
2023/11/08 04:16:54;;;;;;;5.10;1.10;;;;;;;;;;5074036;28;20023;-82
2023/11/08 04:19:19;;;;;;;3.95;1.48;;;;;;;;;;5058357;28;20491;-82
2023/11/08 04:21:45;;;;;;;4.32;1.52;;;;;;;;;;5069899;28;20098;-82
2023/11/08 04:24:18;;;;;;;5.05;1.42;;;;;;;;;;5072456;28;20464;-82
2023/11/08 04:26:43;;;;;;;4.47;1.73;;;;;;;;;;5061134;28;20079;-82
2023/11/08 04:29:08;;;;;;;4.45;1.40;;;;;;;;;;5064531;28;20024;-81
2023/11/08 04:31:34;;;;;;;7.47;1.65;;;;;;;;;;5072525;28;20074;-82
2023/11/08 04:33:59;;;;;;;6.00;1.58;;;;;;;;;;5071314;28;20429;-82
2023/11/08 04:36:26;;;;;;;10.27;1.48;;;;;;;;;;5058198;28;20025;-82
2023/11/08 04:38:53;;;;;;;10.95;1.40;;;;;;;;;;5073003;28;20078;-82
2023/11/08 04:41:20;;;;;;;6.43;1.60;;;;;;;;;;5058263;28;20071;-82
2023/11/08 04:43:46;;;;;;;6.20;1.60;;;;;;;;;;5072060;28;20484;-82
2023/11/08 04:46:21;;;;;;;8.88;1.88;;;;;;;;;;5070329;28;20120;-82
2023/11/08 04:48:46;;;;;;;3.80;1.35;;;;;;;;;;5070849;28;20043;-82
2023/11/08 04:51:11;;;;;;;4.03;1.33;;;;;;;;;;5073269;28;20012;-82
2023/11/08 04:53:37;;;;;;;5.40;1.48;;;;;;;;;;5057753;28;20046;-82
2023/11/08 04:56:02;;;;;;;5.10;1.63;;;;;;;;;;5071577;28;20032;-82
2023/11/08 04:58:27;;;;;;;11.90;1.55;;;;;;;;;;5067983;28;20460;-82
2023/11/08 05:00:53;;;;;;;5.47;1.38;;;;;;;;;;5058878;28;20020;-82
2023/11/08 05:03:18;;;;;;;4.30;1.58;;;;;;;;;;5058963;28;20024;-82
2023/11/08 05:05:43;;;;;;;7.88;1.67;;;;;;;;;;5055784;28;20023;-82
2023/11/08 05:08:08;;;;;;;4.25;1.45;;;;;;;;;;5071297;28;20021;-82
2023/11/08 05:10:34;;;;;;;5.32;1.10;;;;;;;;;;5068131;28;20033;-82
2023/11/08 05:13:02;;;;;;;7.95;1.77;;;;;;;;;;5070980;28;20020;-82
2023/11/08 05:15:29;;;;;;;9.20;1.58;;;;;;;;;;5070361;28;20037;-82
2023/11/08 05:17:55;;;;;;;9.07;1.45;;;;;;;;;;5058281;28;20020;-82
2023/11/08 05:20:22;;;;;;;4.65;1.20;;;;;;;;;;5068046;28;20460;-82
2023/11/08 05:22:47;;;;;;;6.22;1.40;;;;;;;;;;5070363;28;20162;-82
2023/11/08 05:25:12;;;;;;;9.85;1.38;;;;;;;;;;5071129;28;20107;-82
2023/11/08 05:27:38;;;;;;;3.72;1.30;;;;;;;;;;5072119;28;20110;-82
2023/11/08 05:30:04;;;;;;;4.45;1.45;;;;;;;;;;5072483;28;20150;-82
2023/11/08 05:32:30;;;;;;;3.28;1.13;;;;;;;;;;5056918;28;20431;-82
2023/11/08 05:34:56;;;;;;;3.85;1.27;;;;;;;;;;5070917;28;20028;-82
2023/11/08 05:37:21;;;;;;;9.85;1.50;;;;;;;;;;5069123;28;20644;-82
2023/11/08 05:39:47;;;;;;;6.50;1.85;;;;;;;;;;5066246;28;20362;-82
2023/11/08 05:42:12;;;;;;;5.47;1.70;;;;;;;;;;5062135;28;20488;-82
2023/11/08 05:44:37;;;;;;;6.82;1.95;;;;;;;;;;5069467;28;20032;-81
2023/11/08 05:47:03;;;;;;;8.23;1.30;;;;;;;;;;5072422;28;20405;-82
2023/11/08 05:49:28;;;;;;;7.13;1.25;;;;;;;;;;5060055;28;20039;-82
2023/11/08 05:51:53;;;;;;;9.45;1.58;;;;;;;;;;5069019;28;20073;-82
2023/11/08 05:54:19;;;;;;;9.93;1.85;;;;;;;;;;5072253;28;20095;-82
2023/11/08 05:56:44;;;;;;;7.72;1.60;;;;;;;;;;5065048;28;20136;-82
2023/11/08 05:59:10;;;;;;;4.45;1.83;;;;;;;;;;5069676;28;20464;-82
2023/11/08 06:01:35;;;;;;;8.32;1.85;;;;;;;;;;5051119;28;20032;-82
2023/11/08 06:04:01;;;;;;;8.73;1.85;;;;;;;;;;5064387;28;20021;-82
2023/11/08 06:06:27;;;;;;;12.57;1.65;;;;;;;;;;5062385;28;20013;-82
2023/11/08 06:08:52;;;;;;;7.80;1.67;;;;;;;;;;5065757;28;20021;-82
2023/11/08 06:11:18;;;;;;;9.77;1.90;;;;;;;;;;5072169;28;20027;-82
2023/11/08 06:13:43;;;;;;;9.32;2.50;;;;;;;;;;5071551;28;20028;-82
2023/11/08 06:16:09;;;;;;;8.80;1.80;;;;;;;;;;5071939;28;20033;-82
2023/11/08 06:18:40;;;;;;;8.98;2.10;;;;;;;;;;5058034;28;20025;-82
2023/11/08 06:21:06;;;;;;;5.30;1.70;;;;;;;;;;5062988;28;20507;-82
2023/11/08 06:23:34;;;;;;;8.65;1.58;;;;;;;;;;5069751;28;20289;-82
2023/11/08 06:25:59;;;;;;;7.10;2.00;;;;;;;;;;5066666;28;20436;-82
2023/11/08 06:28:25;;;;;;;16.45;2.30;;;;;;;;;;5050166;28;20045;-82
2023/11/08 06:30:50;;;;;;;10.10;2.63;;;;;;;;;;5064670;28;20028;-82
2023/11/08 06:33:15;;;;;;;9.43;2.33;;;;;;;;;;5050130;28;20021;-82
2023/11/08 06:35:41;;;;;;;10.93;2.28;;;;;;;;;;5064465;28;20056;-82
2023/11/08 06:38:06;;;;;;;6.82;1.73;;;;;;;;;;5055796;28;20013;-82
2023/11/08 06:40:34;;;;;;;11.13;1.63;;;;;;;;;;5060095;28;20025;-82
2023/11/08 06:42:59;;;;;;;10.38;1.90;;;;;;;;;;5054384;28;20024;-82
2023/11/08 06:45:25;;;;;;;10.48;2.05;;;;;;;;;;5067578;28;20030;-82
2023/11/08 06:47:50;;;;;;;5.95;2.00;;;;;;;;;;5057086;28;20020;-81
2023/11/08 06:50:15;;;;;;;6.38;1.80;;;;;;;;;;5049902;28;20016;-81
2023/11/08 06:52:40;;;;;;;15.15;2.00;;;;;;;;;;5053768;28;20028;-81
2023/11/08 06:55:06;;;;;;;8.27;1.85;;;;;;;;;;5064070;28;20112;-81
2023/11/08 06:57:31;;;;;;;7.78;1.70;;;;;;;;;;5057011;28;20052;-82
2023/11/08 06:59:57;;;;;;;10.63;2.00;;;;;;;;;;5057040;28;20025;-82
2023/11/08 07:02:22;;;;;;;5.63;1.83;;;;;;;;;;5055050;28;20475;-82
2023/11/08 07:04:48;;;;;;;5.63;1.63;;;;;;;;;;5050701;28;20028;-82
2023/11/08 07:07:13;;;;;;;6.13;2.03;;;;;;;;;;5052101;28;20021;-82
2023/11/08 07:09:38;;;;;;;4.47;1.58;;;;;;;;;;5052044;28;20037;-81
2023/11/08 07:12:04;;;;;;;5.97;1.70;;;;;;;;;;5061662;28;20453;-81
2023/11/08 07:14:29;;;;;;;10.38;1.83;;;;;;;;;;5064403;28;20062;-82
2023/11/08 07:16:54;;;;;;;9.10;1.83;;;;;;;;;;5050846;28;20063;-81
2023/11/08 07:19:19;;;;;;;5.22;1.45;;;;;;;;;;5050656;28;20017;-82
2023/11/08 07:21:45;;;;;;;11.85;1.92;;;;;;;;;;5050053;28;20029;-82
2023/11/08 07:24:10;;;;;;;6.68;1.15;;;;;;;;;;5046866;28;20025;-82
2023/11/08 07:26:35;;;;;;;13.20;1.58;;;;;;;;;;5051877;28;20032;-82
2023/11/08 07:29:03;;;;;;;5.40;1.20;;;;;;;;;;5050171;28;20017;-82
2023/11/08 07:31:30;;;;;;;9.07;1.58;;;;;;;;;;5064771;28;20419;-82
2023/11/08 07:33:55;;;;;;;8.77;1.70;;;;;;;;;;5062759;28;20042;-82
2023/11/08 07:36:22;;;;;;;5.80;1.67;;;;;;;;;;5068508;28;20028;-82
2023/11/08 07:38:47;;;;;;;9.27;1.67;;;;;;;;;;5052518;28;20025;-82
2023/11/08 07:41:14;;;;;;;6.95;1.70;;;;;;;;;;5057152;28;20078;-82
2023/11/08 07:43:40;;;;;;;7.95;1.55;;;;;;;;;;5054139;28;20051;-82
2023/11/08 07:46:05;;;;;;;10.27;2.08;;;;;;;;;;5064208;28;20025;-82
2023/11/08 07:48:30;;;;;;;3.97;1.60;;;;;;;;;;5058808;28;20032;-82
2023/11/08 07:50:55;;;;;;;5.00;1.55;;;;;;;;;;5054554;28;20022;-81
2023/11/08 07:53:21;;;;;;;10.10;1.55;;;;;;;;;;5050861;28;20025;-82
2023/11/08 07:55:47;;;;;;;7.60;1.83;;;;;;;;;;5054063;28;20051;-82
2023/11/08 07:58:12;;;;;;;8.00;1.90;;;;;;;;;;5052670;28;20021;-82
2023/11/08 08:00:39;;;;;;;7.22;1.90;;;;;;;;;;5052280;28;20048;-82
2023/11/08 08:03:04;;;;;;;10.23;1.60;;;;;;;;;;5056884;28;20374;-82
2023/11/08 08:05:29;;;;;;;5.65;1.35;;;;;;;;;;5051642;28;20126;-81
2023/11/08 08:07:58;;;;;;;7.57;1.55;;;;;;;;;;5051658;28;20025;-82
2023/11/08 08:10:25;;;;;;;5.75;1.45;;;;;;;;;;5052034;28;20025;-82
2023/11/08 08:12:54;;;;;;;9.90;2.08;;;;;;;;;;5051758;28;20016;-82
2023/11/08 08:15:19;;;;;;;7.70;1.58;;;;;;;;;;5051933;28;20037;-82
2023/11/08 08:17:45;;;;;;;10.32;1.45;;;;;;;;;;5051651;28;20036;-81
2023/11/08 08:20:11;;;;;;;6.47;1.75;;;;;;;;;;5051562;28;20112;-82
2023/11/08 08:22:36;;;;;;;11.30;1.98;;;;;;;;;;5051676;28;20028;-83
2023/11/08 08:25:02;;;;;;;6.53;2.00;;;;;;;;;;5052065;28;20029;-82
2023/11/08 08:27:28;;;;;;;7.30;1.98;;;;;;;;;;5052090;28;20028;-82
2023/11/08 08:29:53;;;;;;;6.53;2.08;;;;;;;;;;5050942;28;20742;-82
2023/11/08 08:32:18;;;;;;;7.32;1.90;;;;;;;;;;5050261;28;20036;-82
2023/11/08 08:34:45;;;;;;;14.40;2.03;;;;;;;;;;5052308;28;20040;-82
2023/11/08 08:37:10;;;;;;;12.10;2.33;;;;;;;;;;5052485;28;20020;-83
2023/11/08 08:39:36;;;;;;;12.82;2.28;;;;;;;;;;5052588;28;20032;-82
2023/11/08 08:42:01;;;;;;;5.68;2.10;;;;;;;;;;5051926;28;20059;-82
2023/11/08 08:44:27;;;;;;;10.82;2.10;;;;;;;;;;5051340;28;20032;-82
2023/11/08 08:46:52;;;;;;;6.43;2.03;;;;;;;;;;5051198;28;20025;-82
2023/11/08 08:49:18;;;;;;;7.03;1.98;;;;;;;;;;5045891;28;20186;-82
2023/11/08 08:51:43;;;;;;;5.55;1.92;;;;;;;;;;5052207;28;20082;-82
2023/11/08 08:54:09;;;;;;;8.90;1.95;;;;;;;;;;5049898;28;20033;-82
2023/11/08 08:56:34;;;;;;;11.85;2.28;;;;;;;;;;5050183;28;20029;-82
2023/11/08 08:59:00;;;;;;;7.20;2.63;;;;;;;;;;5050642;28;20468;-81
2023/11/08 09:01:25;;;;;;;9.73;2.63;;;;;;;;;;5050569;28;20099;-82
2023/11/08 09:03:50;;;;;;;7.40;2.63;;;;;;;;;;5059657;28;20025;-81
2023/11/08 09:06:19;;;;;;;7.63;2.28;;;;;;;;;;5050417;28;20074;-83
2023/11/08 09:08:44;;;;;;;13.10;2.60;;;;;;;;;;5055114;28;20025;-83
2023/11/08 09:11:10;;;;;;;5.57;1.92;;;;;;;;;;5051312;28;20381;-83
2023/11/08 09:13:35;;;;;;;10.07;2.60;;;;;;;;;;5051583;28;20051;-82
2023/11/08 09:16:03;;;;;;;9.43;2.17;;;;;;;;;;5049894;28;20104;-82
2023/11/08 09:18:28;;;;;;;5.32;1.58;;;;;;;;;;5052189;28;20020;-82
2023/11/08 09:20:54;;;;;;;5.88;1.70;;;;;;;;;;5050190;28;20031;-83
2023/11/08 09:23:20;;;;;;;6.10;2.15;;;;;;;;;;5050793;28;20047;-81
2023/11/08 09:25:46;;;;;;;5.82;2.10;;;;;;;;;;5048941;28;20013;-82
2023/11/08 09:28:11;;;;;;;16.42;2.65;;;;;;;;;;5051726;28;20020;-83
2023/11/08 09:30:36;;;;;;;6.68;2.13;;;;;;;;;;5050395;28;20017;-82
2023/11/08 09:33:01;;;;;;;7.47;2.25;;;;;;;;;;5051590;28;20109;-82
2023/11/08 09:35:27;;;;;;;7.35;1.63;;;;;;;;;;5046804;28;20063;-82
2023/11/08 09:37:54;;;;;;;8.30;1.90;;;;;;;;;;5048895;28;20025;-83
2023/11/08 09:40:20;;;;;;;7.88;2.05;;;;;;;;;;5046628;28;20040;-83
2023/11/08 09:42:48;;;;;;;6.57;1.80;;;;;;;;;;5050741;28;20028;-83
2023/11/08 09:45:15;;;;;;;8.50;2.10;;;;;;;;;;5051950;28;20020;-82
2023/11/08 09:47:41;;;;;;;9.48;2.30;;;;;;;;;;5050566;28;20021;-83
2023/11/08 09:50:11;;;;;;;13.23;2.20;;;;;;;;;;5050255;28;20075;-82
2023/11/08 09:52:39;;;;;;;7.75;1.67;;;;;;;;;;5060485;28;20476;-84
2023/11/08 09:55:11;;;;;;;11.55;2.15;;;;;;;;;;5046419;28;20025;-84
2023/11/08 09:57:37;;;;;;;5.45;1.58;;;;;;;;;;5054689;28;20388;-84
2023/11/08 10:00:03;;;;;;;10.82;1.63;;;;;;;;;;5051981;28;20029;-83
2023/11/08 10:02:28;;;;;;;3.92;1.27;;;;;;;;;;5051179;28;20020;-84
2023/11/08 10:04:55;;;;;;;7.90;2.17;;;;;;;;;;5050440;28;20033;-83
2023/11/08 10:07:20;;;;;;;7.65;2.65;;;;;;;;;;5051482;28;20024;-88
2023/11/08 10:09:53;;;;;;;10.18;2.33;;;;;;;;;;5051880;28;20103;-88
2023/11/08 10:12:32;;;;;;;7.43;1.63;;;;;;;;;;5062362;28;20124;-91
2023/11/08 10:15:06;;;;;;;4.53;1.65;;;;;;;;;;5053720;28;20477;-92
2023/11/08 10:17:35;;;;;;;4.30;1.40;;;;;;;;;;5066096;28;20033;-92
2023/11/08 10:20:01;;;;;;;6.18;1.52;;;;;;;;;;5059020;28;20493;-93
2023/11/08 10:22:26;;;;;;;4.10;1.48;;;;;;;;;;5053032;28;20031;-92
2023/11/08 10:24:55;;;;;;;8.30;1.40;;;;;;;;;;5051582;28;20025;-92
2023/11/08 10:27:21;;;;;;;5.45;1.23;;;;;;;;;;5053632;28;20047;-90
2023/11/08 10:29:47;;;;;;;8.52;1.50;;;;;;;;;;5057987;28;20025;-87
2023/11/08 10:32:20;;;;;;;6.35;1.50;;;;;;;;;;5050446;28;20029;-86
2023/11/08 10:34:46;;;;;;;5.68;1.58;;;;;;;;;;5058815;28;20101;-86
2023/11/08 10:37:21;;;;;;;3.25;0.90;;;;;;;;;;5062250;28;20056;-87
2023/11/08 10:39:47;;;;;;;7.70;1.27;;;;;;;;;;5054813;28;20036;-86
2023/11/08 10:42:12;;;;;;;12.95;1.95;;;;;;;;;;5050405;28;20078;-87
2023/11/08 10:44:37;;;;;;;4.68;0.98;;;;;;;;;;5050228;28;20028;-86
2023/11/08 10:47:02;;;;;;;5.28;1.10;;;;;;;;;;5050435;28;20024;-86
2023/11/08 10:49:28;;;;;;;2.95;1.23;;;;;;;;;;5064881;28;20165;-87
2023/11/08 10:51:57;;;;;;;5.80;1.65;;;;;;;;;;5054210;28;20087;-85
2023/11/08 10:54:22;;;;;;;4.57;1.42;;;;;;;;;;5048092;28;20016;-86
2023/11/08 10:56:49;;;;;;;2.00;1.05;;;;;;;;;;5064609;28;20023;-87
2023/11/08 10:59:17;;;;;;;9.88;1.60;;;;;;;;;;5050303;28;20016;-86
2023/11/08 11:01:42;;;;;;;7.22;1.63;;;;;;;;;;5050806;28;20400;-86
2023/11/08 11:04:11;;;;;;;7.43;1.55;;;;;;;;;;5069646;28;20017;-86
2023/11/08 11:06:37;;;;;;;5.00;1.17;;;;;;;;;;5059437;28;20013;-86
2023/11/08 11:09:04;;;;;;;2.03;0.75;;;;;;;;;;5052305;28;20482;-87
2023/11/08 11:11:32;;;;;;;4.07;1.20;;;;;;;;;;5064734;28;20428;-87
2023/11/08 11:14:05;;;;;;;5.07;1.25;;;;;;;;;;5058239;28;20025;-86
2023/11/08 11:16:31;;;;;;;5.20;1.15;;;;;;;;;;5054717;28;20052;-86
2023/11/08 11:19:05;;;;;;;5.50;0.95;;;;;;;;;;5054273;28;20089;-86
2023/11/08 11:21:43;;;;;;;5.07;1.08;;;;;;;;;;5063464;28;20089;-86
2023/11/08 11:24:27;;;;;;;9.95;0.65;;;;;;;;;;5057958;28;20029;-87
2023/11/08 11:26:52;;;;;;;4.13;1.35;;;;;;;;;;5065329;28;20028;-87
2023/11/08 11:29:18;;;;;;;4.10;1.40;;;;;;;;;;5057449;28;20028;-86
2023/11/08 11:31:44;;;;;;;5.70;1.35;;;;;;;;;;5063129;28;20043;-86
2023/11/08 11:34:29;;;;;;;9.80;0.90;;;;;;;;;;5060223;28;20368;-85
2023/11/08 11:37:23;;;;;;;4.22;1.15;;;;;;;;;;5065178;28;20021;-87
2023/11/08 11:39:49;;;;;;;2.50;0.95;;;;;;;;;;5055220;28;20085;-86
2023/11/08 11:42:14;;;;;;;5.18;1.17;;;;;;;;;;5054163;28;20028;-85
2023/11/08 11:44:42;;;;;;;3.78;1.00;;;;;;;;;;5055111;28;20017;-85
2023/11/08 11:47:12;;;;;;;1.77;0.80;;;;;;;;;;5055377;28;20017;-86
2023/11/08 11:49:46;;;;;;;3.35;1.15;;;;;;;;;;5054208;28;20025;-86
2023/11/08 11:52:22;;;;;;;5.32;1.02;;;;;;;;;;5053494;28;20017;-86
2023/11/08 11:54:48;;;;;;;4.13;1.48;;;;;;;;;;5054853;28;20333;-86
2023/11/08 11:57:15;;;;;;;8.75;1.52;;;;;;;;;;5053556;28;20452;-86
2023/11/08 11:59:40;;;;;;;4.65;1.30;;;;;;;;;;5054664;28;20060;-86
2023/11/08 12:02:06;;;;;;;4.00;1.10;;;;;;;;;;5056523;28;20397;-86
2023/11/08 12:04:34;;;;;;;4.30;1.10;;;;;;;;;;5064288;28;20021;-85
2023/11/08 12:06:59;;;;;;;2.60;1.00;;;;;;;;;;5067480;28;20479;-86
2023/11/08 12:09:25;;;;;;;7.82;1.33;;;;;;;;;;5053508;28;20028;-87
2023/11/08 12:11:50;;;;;;;3.63;0.90;;;;;;;;;;5066815;28;20036;-84
2023/11/08 12:14:21;;;;;;;5.90;1.10;;;;;;;;;;5069112;28;20025;-86
2023/11/08 12:16:47;;;;;;;3.90;1.05;;;;;;;;;;5053087;28;20029;-84
2023/11/08 12:19:14;;;;;;;7.85;1.10;;;;;;;;;;5070516;28;20104;-86
2023/11/08 12:21:39;;;;;;;4.78;1.48;;;;;;;;;;5063097;28;20029;-86
2023/11/08 12:24:05;;;;;;;3.58;1.30;;;;;;;;;;5055055;28;20025;-86
2023/11/08 12:26:30;;;;;;;6.20;1.50;;;;;;;;;;5064685;28;20057;-86
2023/11/08 12:28:55;;;;;;;5.65;1.55;;;;;;;;;;5052847;28;20376;-85
2023/11/08 12:31:21;;;;;;;2.92;1.15;;;;;;;;;;5053339;28;20019;-86
2023/11/08 12:33:47;;;;;;;7.18;1.50;;;;;;;;;;5052772;28;20025;-86
2023/11/08 12:36:12;;;;;;;1.40;0.68;;;;;;;;;;5056168;28;20016;-86
2023/11/08 12:38:39;;;;;;;3.83;0.85;;;;;;;;;;5053214;28;20021;-84
2023/11/08 12:41:05;;;;;;;2.90;1.20;;;;;;;;;;5069010;28;20086;-87
2023/11/08 12:43:31;;;;;;;5.38;1.02;;;;;;;;;;5066730;28;20028;-86
2023/11/08 12:46:14;;;;;;;8.75;1.90;;;;;;;;;;5052681;28;20013;-86
2023/11/08 12:48:40;;;;;;;4.35;1.30;;;;;;;;;;5044971;28;20476;-87
2023/11/08 12:51:07;;;;;;;5.57;0.90;;;;;;;;;;5073014;28;20119;-86
2023/11/08 12:53:36;;;;;;;3.47;1.13;;;;;;;;;;5056195;28;20117;-86
2023/11/08 12:56:02;;;;;;;3.55;0.80;;;;;;;;;;5061521;28;20009;-86
2023/11/08 12:58:29;;;;;;;2.17;0.90;;;;;;;;;;5058413;28;20025;-86
2023/11/08 13:00:57;;;;;;;5.72;1.02;;;;;;;;;;5054422;28;20021;-85
2023/11/08 13:03:26;;;;;;;3.40;1.00;;;;;;;;;;5052634;28;20439;-85
2023/11/08 13:05:53;;;;;;;3.08;1.02;;;;;;;;;;5058131;28;20025;-85
2023/11/08 13:08:18;;;;;;;4.07;0.85;;;;;;;;;;5060931;28;20465;-85
2023/11/08 13:10:44;;;;;;;2.63;0.77;;;;;;;;;;5052295;28;20024;-87
2023/11/08 13:13:09;;;;;;;2.05;1.00;;;;;;;;;;5062164;28;20082;-86
2023/11/08 13:15:37;;;;;;;4.03;1.10;;;;;;;;;;5057976;28;20064;-86
2023/11/08 13:18:03;;;;;;;3.40;0.80;;;;;;;;;;5065891;28;20031;-86
2023/11/08 13:20:31;;;;;;;6.25;1.20;;;;;;;;;;5052342;28;20025;-86
2023/11/08 13:22:56;;;;;;;5.18;1.05;;;;;;;;;;5051672;28;20016;-86
2023/11/08 13:25:21;;;;;;;6.15;1.05;;;;;;;;;;5065135;28;20124;-86
2023/11/08 13:27:48;;;;;;;3.53;0.90;;;;;;;;;;5067970;28;20047;-85
2023/11/08 13:30:13;;;;;;;3.53;1.00;;;;;;;;;;5052369;28;20028;-86
2023/11/08 13:32:39;;;;;;;4.07;0.88;;;;;;;;;;5051623;28;20025;-85
2023/11/08 13:35:10;;;;;;;2.28;1.00;;;;;;;;;;5052258;28;20475;-86
2023/11/08 13:37:37;;;;;;;3.47;0.90;;;;;;;;;;5066040;28;20110;-86
2023/11/08 13:40:02;;;;;;;3.53;0.93;;;;;;;;;;5053139;28;20108;-86
2023/11/08 13:42:27;;;;;;;7.32;1.33;;;;;;;;;;5066268;28;20023;-86
2023/11/08 13:44:53;;;;;;;9.23;1.17;;;;;;;;;;5053968;28;20017;-86
2023/11/08 13:47:18;;;;;;;10.05;0.80;;;;;;;;;;5053403;28;20413;-86
2023/11/08 13:49:43;;;;;;;4.72;1.20;;;;;;;;;;5051711;28;20020;-86
2023/11/08 13:52:08;;;;;;;2.53;1.17;;;;;;;;;;5053114;28;20019;-86
2023/11/08 13:54:34;;;;;;;2.22;0.88;;;;;;;;;;5052636;28;20147;-86
2023/11/08 13:56:59;;;;;;;3.40;0.88;;;;;;;;;;5052820;28;20032;-86
2023/11/08 13:59:25;;;;;;;2.63;0.90;;;;;;;;;;5052316;28;20017;-86
2023/11/08 14:01:50;;;;;;;4.80;1.05;;;;;;;;;;5067198;28;20021;-85
2023/11/08 14:04:15;;;;;;;6.93;0.70;;;;;;;;;;5066430;28;20009;-86
2023/11/08 14:06:41;;;;;;;2.22;0.75;;;;;;;;;;5051765;28;20021;-85
2023/11/08 14:09:06;;;;;;;2.28;0.68;;;;;;;;;;5065729;28;20108;-86
2023/11/08 14:11:31;;;;;;;3.33;0.68;;;;;;;;;;5056320;28;20014;-86
2023/11/08 14:13:57;;;;;;;4.07;1.02;;;;;;;;;;5065141;28;20078;-86
2023/11/08 14:16:22;;;;;;;3.10;0.70;;;;;;;;;;5059813;28;20023;-86
2023/11/08 14:18:47;;;;;;;19.33;1.00;;;;;;;;;;5072338;28;20030;-87
2023/11/08 14:21:12;;;;;;;6.53;1.40;;;;;;;;;;5051662;28;20464;-86
2023/11/08 14:23:38;;;;;;;4.55;1.67;;;;;;;;;;5052600;28;20033;-86
2023/11/08 14:26:05;;;;;;;3.03;1.00;;;;;;;;;;5069165;28;20103;-86
2023/11/08 14:28:31;;;;;;;3.58;1.58;;;;;;;;;;5061273;28;20154;-86
2023/11/08 14:31:01;;;;;;;2.97;1.00;;;;;;;;;;5051691;28;20088;-87
2023/11/08 14:33:26;;;;;;;5.45;1.52;;;;;;;;;;5051275;28;20021;-87
2023/11/08 14:35:51;;;;;;;4.53;1.00;;;;;;;;;;5061700;28;20193;-86